Loyal, Wisconsin
Current Conditions -  °F | °C
As of 4:54 AM on Tuesday 21 Oct 2014 (Local Time) from KMFI Reporting Station
Clear Clear  
Wind Chill: 34°   Ceiling: Unl
Heat Index: 39°   Visibility: 10mi
Dew Point: 35°   Wind: 7mph
Humidity: 86%   Direction: 30°NNE
Pressure: 30.13"   Gusts: NA
Location:  44.74°N, 90.5°W
Report Text: KMFI 210954Z AUTO 03006KT 10SM CLR 04/02 A3013 RMK AO2 SLP211 T00390017
Loading
Personal Weather Stations






























Interactive Weather Map
Tropical Storm Tracking
New forecast layout! Learn more

10-Day Weather Forecast

Advertisements
Track Severe Weather on mobile